E.r. Basel — A8XQ4 — position and weather

sailwx.info

Track history (hours):
 
Tides and Currents Weather Stations Pressure Air Temp Water Temp Dewpoint Dewpoint Depression Visibility Wind Speed Wind Dir Waves Ship Positions

E.r. Basel

Last reported at 2016-Jul-29 09:33 UTC. Time now 2016-Jul-29 10:17 UTC.
Position N 36°37' E 013°54'.

Length 187 m; draft 9.5 m.

Type: Cargo ship. MMSI: 636092149.

Date/timePositionNaut miles runAvg speedWind from/ knotsBaromVisibWave heightAir tempDewpointWater temp
2016-Jul-29 09:33N 36°37' E 013°54'1211.9
2016-Jul-29 08:33N 36°33' E 014°08'1312.7
2016-Jul-29 07:33N 36°29' E 014°23'1312.8
2016-Jul-29 06:33N 36°25' E 014°38'1312.8
2016-Jul-29 05:33N 36°25' E 014°54'1312.7
2016-Jul-29 04:33N 36°25' E 015°10'1312.9
2016-Jul-29 03:33N 36°25' E 015°26'1312.8
2016-Jul-29 02:30N 36°25' E 015°43'  
2016-Jul-26 15:04N 35°48' E 030°56'21412.9
2016-Jul-25 22:33N 36°20' E 035°17'2512.4
2016-Jul-25 20:33N 36°30' E 035°45'  
Track history (hours):
 
Tides and Currents Weather Stations Pressure Air Temp Water Temp Dewpoint Dewpoint Depression Visibility Wind Speed Wind Dir Waves Ship Positions

E.r. Basel

Last reported at 2016-Jul-29 09:33 UTC. Time now 2016-Jul-29 10:17 UTC.
Position N 36°37' E 013°54'.

Length 187 m; draft 9.5 m.

Type: Cargo ship. MMSI: 636092149.

Date/timePositionNaut miles runAvg speedWind from/ knotsBaromVisibWave heightAir tempDewpointWater temp
2016-Jul-29 09:33N 36°37' E 013°54'1211.9
2016-Jul-29 08:33N 36°33' E 014°08'1312.7
2016-Jul-29 07:33N 36°29' E 014°23'1312.8
2016-Jul-29 06:33N 36°25' E 014°38'1312.8
2016-Jul-29 05:33N 36°25' E 014°54'1312.7
2016-Jul-29 04:33N 36°25' E 015°10'1312.9
2016-Jul-29 03:33N 36°25' E 015°26'1312.8
2016-Jul-29 02:30N 36°25' E 015°43'  
2016-Jul-26 15:04N 35°48' E 030°56'21412.9
2016-Jul-25 22:33N 36°20' E 035°17'2512.4
2016-Jul-25 20:33N 36°30' E 035°45'  

Dump ship's entire track history